Time;durP1;ratioP1;P1;durP2;ratioP2;P2;SDS_P1;SDS_P2;PMS_P1;PMS_P2;Temp;Humidity;BMP_temperature;BMP_pressure;BME280_temperature;BME280_humidity;BME280_pressure;Samples;Min_cycle;Max_cycle;Signal;HPM_P1;HPM_P2
2021/03/14 00:00:56;;;;;;;2.75;1.90;;;5.10;89.70;;;3.87;75.40;97246.38;5121824;28;20432;-80
2021/03/14 00:03:27;;;;;;;3.88;1.40;;;5.10;89.30;;;4.02;74.98;97253.13;5121470;28;20444;-80
2021/03/14 00:05:54;;;;;;;2.13;1.70;;;5.10;89.30;;;3.89;75.58;97252.22;5124574;28;20404;-79
2021/03/14 00:08:22;;;;;;;4.85;1.75;;;5.00;89.70;;;3.94;75.24;97262.06;5120194;28;20743;-79
2021/03/14 00:10:53;;;;;;;1.92;1.50;;;5.00;89.70;;;3.85;75.30;97253.66;5117837;28;20435;-79
2021/03/14 00:13:23;;;;;;;3.00;2.00;;;5.10;89.50;;;3.99;75.64;97271.88;5117626;28;20404;-80
2021/03/14 00:15:49;;;;;;;6.47;2.10;;;5.10;89.80;;;4.13;75.39;97270.78;5118595;28;20431;-80
2021/03/14 00:18:17;;;;;;;3.47;2.08;;;5.10;89.90;;;3.88;75.78;97266.31;5116725;28;20800;-79
2021/03/14 00:20:44;;;;;;;2.90;1.80;;;5.10;89.60;;;3.72;76.31;97276.50;5117270;28;20702;-79
2021/03/14 00:23:10;;;;;;;3.15;1.88;;;4.90;89.90;;;3.69;77.05;97290.78;5117172;28;20435;-79
2021/03/14 00:25:36;;;;;;;3.00;1.67;;;4.80;90.60;;;3.52;77.42;97301.97;5121117;28;20743;-79
2021/03/14 00:28:05;;;;;;;2.00;1.42;;;4.70;90.60;;;3.67;77.63;97305.91;5122065;28;20412;-79
2021/03/14 00:30:32;;;;;;;2.42;1.70;;;4.80;91.00;;;3.68;77.50;97310.16;5121809;28;20408;-79
2021/03/14 00:32:58;;;;;;;3.53;1.60;;;4.90;91.10;;;3.72;78.66;97308.69;5121243;28;20408;-79
2021/03/14 00:35:24;;;;;;;2.40;1.60;;;4.90;91.50;;;3.75;77.55;97312.72;5120398;28;20423;-80
2021/03/14 00:37:52;;;;;;;4.60;1.95;;;4.90;90.90;;;3.80;78.16;97299.81;5120938;28;20408;-79
2021/03/14 00:40:22;;;;;;;2.78;1.60;;;4.90;91.50;;;3.92;77.09;97298.13;5104027;28;20430;-79
2021/03/14 00:42:48;;;;;;;2.08;1.63;;;4.90;90.80;;;3.80;76.34;97310.28;5119379;28;21213;-79
2021/03/14 00:45:16;;;;;;;1.95;1.60;;;4.90;90.10;;;3.86;77.25;97307.63;5101474;28;20419;-79
2021/03/14 00:47:42;;;;;;;2.25;1.67;;;5.00;90.70;;;3.77;76.98;97302.81;5120170;28;20406;-79
2021/03/14 00:50:10;;;;;;;2.67;1.75;;;4.90;90.50;;;3.73;77.01;97314.75;5101395;28;20439;-79
2021/03/14 00:52:36;;;;;;;3.53;1.50;;;4.90;90.60;;;3.66;77.02;97319.22;5121538;28;20504;-79
2021/03/14 00:55:05;;;;;;;1.75;1.50;;;4.80;90.40;;;3.68;77.47;97301.50;5118808;28;20460;-78
2021/03/14 00:57:32;;;;;;;1.67;1.35;;;4.80;90.90;;;3.74;76.71;97304.06;5118501;28;20427;-78
2021/03/14 00:59:58;;;;;;;2.60;1.50;;;4.90;90.70;;;3.63;76.47;97290.81;5119415;28;20400;-79
2021/03/14 01:02:25;;;;;;;1.85;1.67;;;4.80;90.60;;;3.70;75.79;97294.22;5118954;28;20499;-80
2021/03/14 01:04:51;;;;;;;1.58;1.30;;;4.80;90.20;;;3.63;75.54;97293.44;5119269;28;20456;-80
2021/03/14 01:07:18;;;;;;;2.72;1.38;;;4.80;89.90;;;3.68;76.29;97299.69;5121968;28;20840;-79
2021/03/14 01:09:44;;;;;;;1.75;1.52;;;4.80;90.30;;;3.90;75.63;97310.63;5121200;28;20408;-79
2021/03/14 01:12:11;;;;;;;2.27;1.70;;;4.90;90.30;;;3.83;75.56;97313.25;5120260;28;20786;-80
2021/03/14 01:14:37;;;;;;;2.45;1.20;;;4.90;90.00;;;3.60;75.73;97312.19;5117775;28;20412;-79
2021/03/14 01:17:04;;;;;;;1.63;1.30;;;4.80;89.70;;;3.58;76.41;97315.00;5121035;28;20454;-79
2021/03/14 01:19:31;;;;;;;3.85;1.35;;;4.70;90.30;;;3.48;76.59;97328.53;5103164;28;20444;-80
2021/03/14 01:21:57;;;;;;;1.77;1.60;;;4.60;90.30;;;3.61;75.79;97327.66;5118454;28;20416;-80
2021/03/14 01:24:24;;;;;;;2.67;1.42;;;4.70;90.30;;;3.44;76.21;97332.59;5119313;28;20802;-80
2021/03/14 01:26:51;;;;;;;2.88;1.73;;;4.60;90.10;;;3.56;76.03;97326.69;5117937;28;20401;-80
2021/03/14 01:29:17;;;;;;;1.47;1.37;;;4.60;90.60;;;3.42;76.48;97331.97;5119269;28;20480;-80
2021/03/14 01:31:43;;;;;;;1.70;1.60;;;4.60;90.30;;;3.42;76.46;97333.78;5119261;28;20435;-80
2021/03/14 01:34:09;;;;;;;2.40;1.55;;;4.60;90.40;;;3.46;76.65;97333.16;5119686;28;20686;-80
2021/03/14 01:36:36;;;;;;;1.85;1.55;;;4.60;90.50;;;3.41;77.11;97327.75;5119797;28;20404;-79
2021/03/14 01:39:03;;;;;;;1.85;1.70;;;4.50;90.80;;;3.49;76.58;97326.72;5101636;28;20469;-80
2021/03/14 01:41:29;;;;;;;1.75;1.52;;;4.60;90.60;;;3.38;76.82;97327.38;5117727;28;20424;-78
2021/03/14 01:43:56;;;;;;;2.20;1.38;;;4.60;90.50;;;3.32;77.25;97330.81;5118094;28;20809;-80
2021/03/14 01:46:23;;;;;;;1.95;1.60;;;4.50;90.60;;;3.44;76.74;97329.16;5117480;28;20429;-80
2021/03/14 01:48:49;;;;;;;1.47;1.37;;;4.50;90.60;;;3.44;76.92;97327.34;5117083;28;20411;-80
2021/03/14 01:51:15;;;;;;;1.60;1.50;;;4.60;90.70;;;3.46;77.04;97329.75;5117226;28;20832;-80
2021/03/14 01:53:42;;;;;;;1.30;1.20;;;4.60;90.70;;;3.53;76.38;97329.75;5117782;28;20407;-80
2021/03/14 01:56:09;;;;;;;1.35;1.25;;;4.60;90.30;;;3.46;76.35;97340.22;5120908;28;20408;-80
2021/03/14 01:58:37;;;;;;;1.40;1.30;;;4.60;90.20;;;3.42;76.62;97339.03;5125563;28;20546;-80
2021/03/14 02:01:03;;;;;;;1.40;1.23;;;4.50;90.40;;;3.56;75.68;97351.06;5116656;28;20396;-80
2021/03/14 02:03:29;;;;;;;1.30;1.20;;;4.60;90.20;;;3.55;75.80;97353.88;5118229;28;20500;-80
2021/03/14 02:05:56;;;;;;;1.30;1.20;;;4.70;90.10;;;3.71;75.27;97335.09;5117805;28;20427;-80
2021/03/14 02:08:24;;;;;;;1.30;1.23;;;4.80;90.00;;;3.68;75.40;97351.22;5118504;28;20418;-81
2021/03/14 02:10:53;;;;;;;1.20;1.20;;;4.80;90.00;;;3.38;75.50;97349.09;5100963;28;20416;-80
2021/03/14 02:13:27;;;;;;;1.38;1.27;;;4.60;89.70;;;3.48;75.47;97349.47;5120059;28;20473;-80
2021/03/14 02:15:57;;;;;;;1.30;1.30;;;4.60;90.40;;;3.45;75.55;97357.75;5119562;28;20408;-80
2021/03/14 02:18:26;;;;;;;1.63;1.40;;;4.60;90.00;;;3.52;76.32;97368.19;5121394;28;20508;-80
2021/03/14 02:20:53;;;;;;;1.45;1.35;;;4.60;90.30;;;3.36;76.64;97372.06;5131796;27;20388;-80
2021/03/14 02:23:33;;;;;;;1.73;1.50;;;4.60;90.30;;;3.39;76.55;97369.00;5135397;27;20472;-81
2021/03/14 02:26:06;;;;;;;1.30;1.20;;;4.50;90.40;;;3.41;76.53;97376.66;5120545;28;20400;-80
2021/03/14 02:28:34;;;;;;;2.97;1.20;;;4.60;90.30;;;3.37;76.48;97371.06;5130084;27;20438;-79
2021/03/14 02:31:03;;;;;;;1.52;1.27;;;4.60;90.40;;;3.35;76.36;97378.28;5130441;28;20452;-80
2021/03/14 02:33:35;;;;;;;3.00;1.80;;;4.50;90.20;;;3.29;75.38;97373.88;5106790;28;20416;-80
2021/03/14 02:36:04;;;;;;;1.90;1.33;;;4.50;89.70;;;3.29;76.50;97379.13;5117655;28;20393;-78
2021/03/14 02:38:30;;;;;;;2.90;1.27;;;4.40;90.40;;;3.34;76.76;97381.91;5117058;28;20424;-80
2021/03/14 02:40:57;;;;;;;2.20;1.70;;;4.40;90.40;;;3.21;76.58;97379.34;5116162;28;20489;-80
2021/03/14 02:43:25;;;;;;;1.70;1.30;;;4.40;90.10;;;3.21;76.96;97381.16;5116341;28;20444;-80
2021/03/14 02:45:54;;;;;;;2.63;1.50;;;4.30;90.60;;;3.17;76.70;97383.34;5116246;28;20404;-79
2021/03/14 02:48:22;;;;;;;1.50;1.40;;;4.30;90.50;;;3.11;77.08;97389.41;5116381;28;20408;-80
2021/03/14 02:50:49;;;;;;;2.75;1.52;;;4.30;90.60;;;3.14;77.04;97385.59;5116145;28;20791;-80
2021/03/14 02:53:17;;;;;;;2.05;1.60;;;4.30;90.70;;;3.22;77.36;97386.19;5116318;28;20806;-80
2021/03/14 02:55:44;;;;;;;3.58;1.63;;;4.30;90.80;;;3.26;77.08;97395.22;5098522;28;20404;-80
2021/03/14 02:58:11;;;;;;;1.60;1.48;;;4.40;90.70;;;3.35;76.91;97399.22;5116186;28;20448;-80
2021/03/14 03:00:40;;;;;;;2.00;1.63;;;4.40;90.60;;;3.23;76.41;97410.53;5097830;28;20400;-80
2021/03/14 03:03:07;;;;;;;1.50;1.40;;;4.50;90.30;;;3.45;76.16;97414.50;5115918;28;20415;-80
2021/03/14 03:05:35;;;;;;;2.10;1.50;;;4.50;90.30;;;3.36;76.09;97424.38;5117612;28;20408;-80
2021/03/14 03:08:03;;;;;;;3.40;1.70;;;4.50;90.10;;;3.29;77.19;97430.63;5118418;28;20422;-80
2021/03/14 03:10:34;;;;;;;1.83;1.50;;;4.50;90.70;;;3.27;76.87;97433.44;5117389;28;20511;-80
2021/03/14 03:13:01;;;;;;;1.80;1.63;;;4.40;90.60;;;3.27;77.30;97440.50;5116660;28;20687;-80
2021/03/14 03:15:28;;;;;;;2.67;1.38;;;4.40;90.70;;;3.13;77.24;97444.94;5116753;28;20407;-80
2021/03/14 03:17:56;;;;;;;2.88;1.30;;;4.30;90.60;;;3.20;77.08;97452.78;5116222;28;20503;-80
2021/03/14 03:20:26;;;;;;;1.90;1.40;;;4.30;90.70;;;3.16;77.34;97451.59;5115087;28;20434;-80
2021/03/14 03:22:53;;;;;;;1.40;1.30;;;4.30;90.70;;;3.16;77.33;97459.44;5116793;28;20693;-82
2021/03/14 03:25:20;;;;;;;1.35;1.25;;;4.30;90.80;;;3.30;77.12;97463.63;5116178;28;20392;-80
2021/03/14 03:27:47;;;;;;;1.67;1.38;;;4.40;90.80;;;3.34;76.56;97470.88;5115469;28;20428;-78
2021/03/14 03:30:20;;;;;;;1.50;1.40;;;4.40;90.40;;;3.25;76.75;97466.03;5115757;28;20503;-79
2021/03/14 03:32:47;;;;;;;1.50;1.40;;;4.40;90.40;;;3.26;76.89;97473.69;5116966;28;20419;-79
2021/03/14 03:35:17;;;;;;;2.05;1.23;;;4.40;90.50;;;3.28;76.83;97483.97;5117305;28;20438;-79
2021/03/14 03:37:45;;;;;;;1.60;1.40;;;4.50;90.50;;;3.31;76.68;97491.38;5118253;28;20464;-79
2021/03/14 03:40:15;;;;;;;1.42;1.27;;;4.40;90.30;;;3.27;76.29;97491.00;5117560;28;20407;-80
2021/03/14 03:43:00;;;;;;;2.17;1.60;;;4.30;90.20;;;3.21;76.85;97493.63;5104330;28;20439;-78
2021/03/14 03:45:29;;;;;;;1.33;1.23;;;4.30;90.50;;;3.06;77.41;97497.25;5116775;28;20516;-78
2021/03/14 03:47:58;;;;;;;2.10;1.40;;;4.30;90.60;;;2.95;77.40;97494.41;5117540;28;20432;-78
2021/03/14 03:50:24;;;;;;;1.30;1.27;;;4.20;90.60;;;3.03;77.82;97504.66;5116198;28;20468;-79
2021/03/14 03:52:54;;;;;;;1.73;1.38;;;4.20;90.90;;;2.99;77.57;97506.09;5115770;28;20469;-78
2021/03/14 03:55:21;;;;;;;1.45;1.35;;;4.20;90.80;;;3.13;77.25;97515.53;5119272;28;20432;-78
2021/03/14 03:57:48;;;;;;;2.20;1.50;;;4.30;90.90;;;3.07;76.93;97519.78;5098716;28;20449;-78
2021/03/14 04:00:18;;;;;;;3.00;1.38;;;4.30;90.60;;;3.16;77.12;97530.81;5119315;28;20664;-78
2021/03/14 04:02:45;;;;;;;1.38;1.23;;;4.30;90.60;;;3.13;77.01;97533.03;5119889;28;20820;-78
2021/03/14 04:05:13;;;;;;;1.40;1.30;;;4.30;90.60;;;3.14;77.44;97537.28;5120608;28;20404;-79
2021/03/14 04:07:43;;;;;;;1.65;1.52;;;4.30;90.80;;;3.11;77.00;97538.47;5122048;28;20415;-80
2021/03/14 04:10:14;;;;;;;2.20;1.35;;;4.30;90.70;;;3.22;76.68;97543.13;5124636;28;20400;-79
2021/03/14 04:12:43;;;;;;;1.40;1.30;;;4.30;90.60;;;3.10;76.52;97542.09;5124219;28;20416;-79
2021/03/14 04:15:13;;;;;;;1.50;1.40;;;4.30;90.40;;;3.10;77.09;97547.31;5125151;28;20521;-79
2021/03/14 04:17:41;;;;;;;1.40;1.30;;;4.30;90.60;;;3.03;76.94;97556.97;5103679;28;20466;-79
2021/03/14 04:20:13;;;;;;;3.00;1.95;;;4.30;90.60;;;3.11;77.21;97562.00;5122580;28;20801;-79
2021/03/14 04:22:42;;;;;;;1.90;1.60;;;4.30;90.70;;;3.11;77.01;97564.63;5120327;28;20506;-79
2021/03/14 04:25:12;;;;;;;2.17;1.67;;;4.30;90.70;;;3.14;76.88;97577.31;5103310;28;20488;-79
2021/03/14 04:27:39;;;;;;;2.60;1.58;;;4.30;90.50;;;3.20;76.30;97571.28;5121817;28;20451;-79
2021/03/14 04:30:08;;;;;;;2.40;1.95;;;4.30;90.30;;;3.25;75.45;97578.53;5122118;28;20479;-79
2021/03/14 04:32:36;;;;;;;2.95;1.42;;;4.40;89.70;;;3.22;75.29;97571.91;5127123;28;20487;-78
2021/03/14 04:35:06;;;;;;;2.63;1.30;;;4.40;89.70;;;3.24;75.54;97582.94;5115785;28;20408;-78
2021/03/14 04:37:32;;;;;;;1.80;1.40;;;4.40;89.80;;;3.16;76.04;97598.03;5128708;28;20640;-79
2021/03/14 04:40:00;;;;;;;2.22;1.77;;;4.40;90.00;;;3.27;76.31;97586.97;5120665;28;20726;-79
2021/03/14 04:42:28;;;;;;;1.65;1.50;;;4.40;90.20;;;3.32;75.46;97595.84;5123678;28;20400;-79
2021/03/14 04:44:56;;;;;;;2.40;1.40;;;4.40;89.80;;;3.34;75.64;97599.06;5128290;28;20396;-79
2021/03/14 04:47:22;;;;;;;2.92;1.40;;;4.50;89.70;;;3.25;75.59;97602.06;5122960;28;20406;-80
2021/03/14 04:49:48;;;;;;;1.65;1.48;;;4.40;89.50;;;3.20;75.92;97601.88;5123874;28;20412;-79
2021/03/14 04:52:19;;;;;;;2.75;1.55;;;4.30;89.80;;;3.18;75.67;97614.31;5122915;28;20786;-79
2021/03/14 04:54:48;;;;;;;2.53;1.50;;;4.30;90.00;;;3.06;75.77;97611.50;5123574;28;20432;-79
2021/03/14 04:57:16;;;;;;;1.50;1.38;;;4.20;89.70;;;3.14;75.75;97623.59;5123376;28;20421;-79
2021/03/14 04:59:45;;;;;;;3.03;1.90;;;4.20;90.10;;;3.00;76.49;97615.72;5120538;28;20454;-80
2021/03/14 05:02:12;;;;;;;2.50;1.45;;;4.10;90.30;;;3.00;76.51;97622.75;5120561;28;20410;-79
2021/03/14 05:04:39;;;;;;;2.73;1.60;;;4.10;90.30;;;2.95;76.56;97627.75;5120232;28;20481;-80
2021/03/14 05:07:07;;;;;;;4.65;1.50;;;4.10;90.40;;;2.94;76.49;97632.16;5120872;28;20459;-79
2021/03/14 05:09:37;;;;;;;5.22;1.85;;;4.10;90.30;;;2.69;76.65;97631.91;5120531;28;20408;-79
2021/03/14 05:12:05;;;;;;;4.47;1.77;;;3.90;90.10;;;2.90;76.45;97638.81;5121062;28;20446;-79
2021/03/14 05:14:33;;;;;;;4.93;1.70;;;4.00;90.40;;;2.70;76.34;97635.31;5124329;28;20400;-79
2021/03/14 05:17:01;;;;;;;2.42;1.48;;;3.90;90.20;;;2.69;77.26;97631.09;5121455;28;20410;-80
2021/03/14 05:19:29;;;;;;;4.50;1.70;;;3.90;90.60;;;2.79;76.51;97643.78;5103521;28;20818;-79
2021/03/14 05:21:57;;;;;;;3.00;1.67;;;3.90;90.40;;;2.85;76.56;97651.66;5121476;28;20739;-80
2021/03/14 05:24:24;;;;;;;4.45;1.95;;;3.90;90.40;;;2.79;76.15;97662.88;5125794;28;20392;-79
2021/03/14 05:26:51;;;;;;;3.92;1.90;;;4.00;90.10;;;2.75;76.24;97663.47;5105522;28;20401;-80
2021/03/14 05:29:18;;;;;;;4.68;1.75;;;3.90;90.10;;;2.70;76.25;97667.50;5124450;28;20404;-80
2021/03/14 05:31:44;;;;;;;4.03;1.67;;;3.90;90.20;;;2.62;76.44;97672.06;5124604;28;20431;-78
2021/03/14 05:34:16;;;;;;;2.65;1.65;;;3.80;90.30;;;2.58;76.88;97668.22;5113198;28;20437;-79
2021/03/14 05:36:43;;;;;;;3.70;1.90;;;3.80;90.50;;;2.67;76.64;97672.28;5131238;28;20392;-79
2021/03/14 05:39:09;;;;;;;4.68;1.67;;;3.80;90.40;;;2.67;76.88;97672.28;5113287;28;20432;-79
2021/03/14 05:41:37;;;;;;;4.00;1.50;;;3.80;90.60;;;2.82;75.96;97678.19;5133196;28;20392;-79
2021/03/14 05:44:05;;;;;;;2.25;1.50;;;3.90;90.20;;;2.70;75.64;97677.13;5111416;28;20455;-79
2021/03/14 05:46:33;;;;;;;5.28;1.67;;;3.90;90.00;;;2.84;75.75;97684.03;5135354;28;20419;-79
2021/03/14 05:48:59;;;;;;;3.70;1.70;;;4.00;90.10;;;2.81;75.13;97692.25;5132140;27;20756;-79
2021/03/14 05:51:30;;;;;;;2.97;2.00;;;4.00;89.60;;;2.87;74.44;97701.13;5132393;28;20416;-78
2021/03/14 05:53:58;;;;;;;5.00;2.03;;;4.00;88.90;;;2.98;74.24;97708.41;5134516;28;20446;-79
2021/03/14 05:56:25;;;;;;;4.20;1.80;;;4.10;88.50;;;2.90;74.80;97714.63;5136479;28;20467;-78
2021/03/14 05:58:53;;;;;;;4.28;2.10;;;4.10;88.60;;;2.89;74.85;97720.84;5136732;27;20409;-79
2021/03/14 06:01:23;;;;;;;6.82;2.20;;;4.00;88.80;;;2.86;75.41;97725.66;5117271;28;20412;-78
2021/03/14 06:03:52;;;;;;;3.85;2.03;;;4.00;90.10;;;2.93;74.78;97729.91;5119030;28;20416;-79
2021/03/14 06:06:19;;;;;;;3.90;2.00;;;4.10;89.00;;;3.06;74.64;97731.78;5133097;28;20408;-78
2021/03/14 06:08:46;;;;;;;4.03;1.90;;;4.20;88.90;;;3.08;75.13;97735.03;5135097;27;20401;-79
2021/03/14 06:11:12;;;;;;;4.15;2.22;;;4.20;89.30;;;3.09;74.79;97745.28;5118794;28;20461;-79
2021/03/14 06:13:39;;;;;;;5.10;2.00;;;4.30;89.20;;;3.14;74.56;97749.13;5111130;28;20416;-79
2021/03/14 06:16:07;;;;;;;4.65;2.03;;;4.30;88.90;;;3.23;74.05;97743.53;5129660;28;20392;-79
2021/03/14 06:18:34;;;;;;;7.07;2.20;;;4.40;88.30;;;3.16;73.47;97749.75;5135737;28;20481;-79
2021/03/14 06:21:02;;;;;;;7.13;2.13;;;4.30;87.10;;;3.11;73.34;97753.75;5135065;27;20412;-79
2021/03/14 06:23:29;;;;;;;7.10;2.30;;;4.30;87.40;;;3.16;73.90;97758.38;5135360;27;20422;-78
2021/03/14 06:26:00;;;;;;;4.63;2.08;;;4.30;87.80;;;3.08;73.73;97774.25;5135187;27;20396;-78
2021/03/14 06:28:33;;;;;;;5.45;2.33;;;4.20;87.50;;;3.10;73.11;97780.88;5131757;27;20514;-79
2021/03/14 06:31:16;;;;;;;4.68;2.30;;;4.20;87.10;;;3.12;72.84;97780.69;5096978;28;20443;-79
2021/03/14 06:33:43;;;;;;;6.03;2.60;;;4.30;87.00;;;3.22;72.07;97790.81;5121711;28;20416;-80
2021/03/14 06:36:13;;;;;;;6.50;2.35;;;4.40;86.00;;;3.28;72.20;97801.31;5110795;28;20447;-77
2021/03/14 06:38:40;;;;;;;9.15;2.70;;;4.40;86.20;;;3.33;71.92;97813.78;5107798;28;20412;-78
2021/03/14 06:41:18;;;;;;;7.60;2.23;;;4.50;86.10;;;3.30;72.37;97819.44;5116583;28;20500;-79
2021/03/14 06:43:48;;;;;;;4.03;1.92;;;4.50;86.20;;;3.34;71.86;97823.25;5120219;28;20420;-78
2021/03/14 06:46:24;;;;;;;7.60;1.90;;;4.50;85.90;;;3.42;72.18;97831.75;5127760;28;20532;-79
2021/03/14 06:49:09;;;;;;;5.93;2.28;;;4.60;86.20;;;3.58;71.50;97832.44;5125490;28;20426;-81
2021/03/14 06:51:40;;;;;;;7.18;2.20;;;4.70;85.70;;;3.74;71.35;97842.56;5115439;28;20871;-81
2021/03/14 06:54:25;;;;;;;5.50;2.47;;;4.70;85.50;;;3.72;70.96;97842.75;5120651;28;20419;-80
2021/03/14 06:57:14;;;;;;;9.88;2.10;;;4.80;84.90;;;3.67;70.61;97837.31;5103527;28;20559;-78
2021/03/14 06:59:42;;;;;;;5.72;2.13;;;4.80;84.50;;;3.79;70.53;97846.19;5117351;28;20420;-81
2021/03/14 07:02:12;;;;;;;5.93;2.30;;;4.80;84.40;;;3.76;69.78;97856.28;5117828;28;20668;-83
2021/03/14 07:04:47;;;;;;;7.78;2.22;;;4.90;83.60;;;3.83;70.19;97854.47;5117674;28;20818;-82
2021/03/14 07:07:32;;;;;;;11.43;2.40;;;4.90;83.90;;;3.80;69.78;97857.47;5100841;28;20519;-83
2021/03/14 07:10:02;;;;;;;5.13;2.33;;;4.90;83.10;;;3.81;69.38;97852.06;5122872;28;20430;-81
2021/03/14 07:12:32;;;;;;;6.88;2.40;;;4.90;83.30;;;3.92;69.06;97861.13;5118777;28;20475;-79
2021/03/14 07:15:11;;;;;;;9.85;2.67;;;5.00;83.00;;;3.97;68.05;97873.66;5119133;28;20800;-81
2021/03/14 07:17:39;;;;;;;7.13;2.53;;;5.10;81.60;;;4.06;68.52;97870.63;5121472;28;20411;-80
2021/03/14 07:20:09;;;;;;;4.10;1.70;;;5.10;82.10;;;4.00;68.33;97876.69;5124564;28;20500;-81
2021/03/14 07:22:36;;;;;;;5.75;2.20;;;5.10;81.40;;;4.03;68.45;97880.72;5123421;28;20824;-81
2021/03/14 07:25:07;;;;;;;8.00;2.55;;;5.10;81.70;;;4.25;68.28;97880.38;5125197;28;20411;-81
2021/03/14 07:27:36;;;;;;;7.30;2.25;;;5.30;82.30;;;4.45;67.18;97885.63;5120554;28;20511;-79
2021/03/14 07:30:07;;;;;;;4.65;2.33;;;5.50;80.90;;;4.29;65.78;97892.06;5128006;28;20426;-78
2021/03/14 07:32:33;;;;;;;9.73;2.20;;;5.50;78.20;;;4.40;66.52;97895.94;5130298;28;20420;-77
2021/03/14 07:35:02;;;;;;;7.53;2.30;;;5.50;79.70;;;4.39;66.13;97899.56;5124816;28;20751;-80
2021/03/14 07:37:28;;;;;;;7.40;2.03;;;5.50;79.10;;;4.48;66.39;97910.66;5103344;28;20419;-81
2021/03/14 07:39:54;;;;;;;7.68;2.30;;;5.60;79.60;;;4.69;66.56;97900.00;5126537;28;20681;-79
2021/03/14 07:42:21;;;;;;;7.05;2.30;;;5.70;80.20;;;4.78;66.24;97905.84;5127287;28;20407;-80
2021/03/14 07:44:49;;;;;;;9.75;2.20;;;5.80;79.70;;;4.67;65.44;97902.00;5125433;28;20420;-80
2021/03/14 07:47:18;;;;;;;10.15;2.22;;;5.70;78.00;;;4.32;65.28;97929.38;5125338;28;20476;-81
2021/03/14 07:49:51;;;;;;;6.97;2.07;;;5.50;77.30;;;4.37;66.09;97906.78;5130716;28;20404;-79
2021/03/14 07:52:25;;;;;;;8.40;2.47;;;5.50;79.10;;;4.19;66.93;97920.47;5131141;28;20554;-81
2021/03/14 07:54:56;;;;;;;9.50;2.65;;;5.40;79.50;;;4.34;66.00;97925.56;5123574;28;20412;-81
2021/03/14 07:57:26;;;;;;;8.30;2.28;;;5.40;79.20;;;4.22;66.11;97924.50;5121789;28;20407;-81
2021/03/14 07:59:53;;;;;;;6.88;2.78;;;5.40;78.70;;;4.24;66.74;97923.31;5119909;28;20447;-82
2021/03/14 08:02:30;;;;;;;8.63;2.33;;;5.40;79.70;;;4.24;66.37;97928.53;5110178;28;20408;-79
2021/03/14 08:05:01;;;;;;;5.78;2.17;;;5.40;79.40;;;4.25;67.19;97937.22;5116203;28;20412;-78
2021/03/14 08:07:46;;;;;;;9.65;2.30;;;5.40;80.20;;;4.38;65.75;97933.81;5129927;28;20446;-79
2021/03/14 08:10:36;;;;;;;7.57;2.40;;;5.50;78.80;;;4.61;65.56;97953.44;5119661;28;20415;-81
2021/03/14 08:13:05;;;;;;;7.73;2.43;;;5.60;78.50;;;4.62;65.25;97949.00;5123534;28;20432;-80
2021/03/14 08:15:34;;;;;;;8.10;2.00;;;5.70;78.20;;;4.38;65.70;97952.97;5108674;28;20503;-79
2021/03/14 08:18:03;;;;;;;7.72;2.47;;;5.60;78.00;;;4.57;65.44;97951.41;5120006;28;20408;-80
2021/03/14 08:20:43;;;;;;;9.57;2.20;;;5.50;78.20;;;4.64;64.94;97950.41;5120363;28;20492;-79
2021/03/14 08:23:11;;;;;;;12.52;2.40;;;5.70;77.60;;;4.68;65.37;97954.25;5121815;28;20424;-79
2021/03/14 08:25:42;;;;;;;6.85;2.47;;;5.70;79.20;;;4.59;66.25;97957.25;5123891;28;20766;-78
2021/03/14 08:28:30;;;;;;;12.13;2.50;;;5.70;78.90;;;4.48;66.01;97960.47;5115209;28;20447;-79
2021/03/14 08:30:59;;;;;;;7.60;2.50;;;5.50;78.50;;;4.53;66.55;97960.66;5108025;28;20459;-80
2021/03/14 08:33:41;;;;;;;9.27;3.10;;;5.60;78.90;;;4.78;65.25;97958.31;5100998;28;20410;-78
2021/03/14 08:36:11;;;;;;;7.25;2.50;;;5.80;78.10;;;5.01;63.62;97953.47;5106517;28;20395;-78
2021/03/14 08:38:49;;;;;;;5.40;2.43;;;6.00;76.50;;;5.15;63.84;97962.16;5109425;28;20480;-78
2021/03/14 08:41:49;;;;;;;8.07;2.25;;;6.10;76.50;;;5.16;62.66;97958.53;5091391;28;20410;-81
2021/03/14 08:44:35;;;;;;;7.07;2.10;;;6.20;75.00;;;5.23;62.84;97961.94;5100969;28;20483;-80
2021/03/14 08:47:05;;;;;;;6.32;2.10;;;6.30;75.60;;;5.40;61.86;97966.59;5101188;28;20816;-81
2021/03/14 08:49:45;;;;;;;6.25;1.90;;;6.40;74.50;;;5.11;62.06;97963.59;5102768;28;20669;-80
2021/03/14 08:52:12;;;;;;;5.40;2.00;;;6.20;73.40;;;5.06;61.75;97962.34;5102319;28;20413;-80
2021/03/14 08:54:45;;;;;;;6.10;2.13;;;6.10;73.80;;;4.91;61.15;97964.38;5116257;28;20527;-80
2021/03/14 08:57:13;;;;;;;4.75;2.20;;;6.00;73.10;;;5.10;61.48;97969.84;5115902;28;20420;-81
2021/03/14 08:59:50;;;;;;;6.10;1.77;;;6.10;73.80;;;5.12;60.98;97973.84;5098836;28;20433;-81
2021/03/14 09:02:26;;;;;;;8.55;2.20;;;6.20;72.70;;;4.92;61.18;97975.66;5111111;28;20409;-80
2021/03/14 09:04:53;;;;;;;7.25;2.45;;;6.00;72.80;;;4.97;62.07;97981.91;5101661;28;20505;-80
2021/03/14 09:07:20;;;;;;;6.63;2.10;;;6.00;74.20;;;5.06;60.48;97982.53;5083567;28;20732;-80
2021/03/14 09:09:46;;;;;;;5.20;2.08;;;6.10;72.80;;;5.24;60.68;97987.19;5101729;28;20414;-80
2021/03/14 09:12:15;;;;;;;4.80;2.28;;;6.20;72.60;;;5.19;60.73;97997.50;5101519;28;20421;-79
2021/03/14 09:14:48;;;;;;;7.82;2.20;;;6.20;72.30;;;5.15;61.63;97991.03;5101130;28;20409;-81
2021/03/14 09:17:17;;;;;;;5.82;2.10;;;6.20;73.30;;;4.96;61.06;98011.00;5100224;28;20394;-80
2021/03/14 09:19:48;;;;;;;4.63;1.90;;;6.10;72.70;;;4.66;62.99;98003.44;5101071;28;20534;-81
2021/03/14 09:22:23;;;;;;;6.55;2.22;;;5.80;74.60;;;4.80;62.79;98012.19;5099441;28;20413;-80
2021/03/14 09:24:51;;;;;;;6.60;2.08;;;5.90;75.30;;;5.10;62.28;98011.81;5101664;28;20690;-82
2021/03/14 09:27:19;;;;;;;5.93;2.10;;;6.10;74.70;;;5.26;60.78;98006.19;5109530;28;20394;-82
2021/03/14 09:29:49;;;;;;;6.40;2.35;;;6.30;72.90;;;5.46;60.76;98006.97;5109578;28;20505;-82
2021/03/14 09:32:34;;;;;;;6.22;1.90;;;6.40;73.10;;;5.72;60.18;98001.69;5111308;28;20405;-80
2021/03/14 09:35:25;;;;;;;4.38;2.00;;;6.70;72.40;;;5.77;58.69;97995.81;5086133;28;20505;-81
2021/03/14 09:37:56;;;;;;;4.90;2.10;;;6.80;70.70;;;6.20;57.92;97998.75;5085898;28;20457;-80
2021/03/14 09:40:32;;;;;;;4.72;1.88;;;7.10;70.00;;;6.80;56.15;98004.53;5099956;28;20426;-82
2021/03/14 09:43:16;;;;;;;7.05;1.67;;;7.60;68.30;;;6.53;54.50;98009.16;5103519;28;20410;-79
2021/03/14 09:45:46;;;;;;;7.53;1.70;;;7.70;64.40;;;6.16;55.96;98002.84;5104566;28;20737;-80
2021/03/14 09:48:17;;;;;;;8.82;3.88;;;7.40;65.30;;;5.87;58.06;97998.00;5102200;28;20645;-80
2021/03/14 09:50:52;;;;;;;7.83;2.20;;;6.90;68.90;;;5.88;57.58;98005.72;5103665;28;20539;-83
2021/03/14 09:53:22;;;;;;;6.80;1.73;;;6.90;68.40;;;5.77;58.08;98007.16;5101501;28;20453;-79
2021/03/14 09:55:51;;;;;;;11.23;2.08;;;6.80;69.00;;;5.65;56.84;98019.25;5084914;28;20433;-83
2021/03/14 09:58:20;;;;;;;6.53;2.13;;;6.70;67.50;;;5.60;56.71;98008.56;5102364;28;20463;-81
2021/03/14 10:00:49;;;;;;;6.55;2.38;;;6.70;67.40;;;5.66;57.30;98020.06;5101335;28;20414;-81
2021/03/14 10:03:17;;;;;;;5.22;1.90;;;6.70;68.10;;;5.65;57.20;98005.31;5105159;28;20505;-82
2021/03/14 10:05:47;;;;;;;4.03;1.77;;;6.70;68.00;;;5.56;56.63;98007.38;5112393;28;20402;-82
2021/03/14 10:08:18;;;;;;;4.88;2.20;;;6.60;66.70;;;5.65;57.61;98011.38;5112141;28;20443;-82
2021/03/14 10:10:55;;;;;;;7.50;1.88;;;6.60;68.30;;;5.50;57.51;98008.16;5111862;28;20406;-82
2021/03/14 10:13:26;;;;;;;6.00;2.15;;;6.60;67.80;;;5.49;58.35;98006.56;5106534;28;20491;-82
2021/03/14 10:15:55;;;;;;;6.83;2.00;;;6.50;68.90;;;5.56;59.06;98002.13;5103605;28;20430;-83
2021/03/14 10:18:23;;;;;;;6.87;1.73;;;6.60;70.00;;;5.57;60.09;98006.34;5103903;28;20493;-82
2021/03/14 10:21:11;;;;;;;6.03;2.03;;;6.60;71.20;;;5.40;59.18;98011.22;5110972;28;20414;-78
2021/03/14 10:23:38;;;;;;;8.63;1.98;;;6.50;69.70;;;5.42;58.52;98011.00;5114313;28;20401;-81
2021/03/14 10:26:10;;;;;;;3.50;1.52;;;6.50;69.60;;;5.48;59.23;98004.16;5115863;28;20431;-84
2021/03/14 10:28:40;;;;;;;6.30;1.73;;;6.50;69.90;;;5.60;58.80;98008.56;5108598;28;20494;-82
2021/03/14 10:31:09;;;;;;;5.53;2.13;;;6.60;70.10;;;5.74;57.62;98007.53;5099531;28;20414;-84
2021/03/14 10:33:38;;;;;;;7.68;1.98;;;6.70;68.80;;;5.70;57.86;97995.84;5100974;28;20819;-83
2021/03/14 10:36:09;;;;;;;5.70;1.80;;;6.70;68.70;;;5.78;57.19;97997.44;5099912;28;20405;-83
2021/03/14 10:38:39;;;;;;;7.53;1.98;;;6.80;68.00;;;5.73;57.29;97999.84;5100180;28;20840;-81
2021/03/14 10:41:11;;;;;;;7.30;2.13;;;6.80;68.00;;;5.53;58.46;97997.28;5100589;28;20434;-82
2021/03/14 10:43:45;;;;;;;6.95;1.95;;;6.60;69.20;;;5.36;58.69;97996.88;5100927;28;20457;-82